Valley Cottage, New York
Current Conditions -  °F | °C
As of 7:56 PM on Saturday 25 Oct 2014 (Local Time) from KHPN Reporting Station
Few Clouds Few Clouds  
Wind Chill: 59°   Ceiling: Unl
Heat Index: 59°   Visibility: 10mi
Dew Point: 43°   Wind: 0mph
Humidity: 55%   Direction: NA
Pressure: 29.62"   Gusts: NA
Location:  41.11°N, 73.96°W
Report Text: KHPN 252356Z 00000KT 10SM FEW075 15/06 A2962 RMK AO2 SLP030 T01500061 10183 20150 56007
Loading
Personal Weather Stations






























Interactive Weather Map
Tropical Storm Tracking
New forecast layout! Learn more

10-Day Weather Forecast

Advertisements
Track Severe Weather on mobile